Hovedside
METAR-TAF:

METAR-TAF

Lufthavner :

Ørland hovedflystasjon

Ørland, Norge

breddegrad: 63-42N, lengdegrad: 009-36E, høyde over havet: 0 m

Gjeldene værobservasjon

Denne rapporten ble laget for 23 minutter siden, klokken 06:50 UTC
Vind 13 kt fra Øst-sørøst
Temperatur 10°C
Luftfuktighet 66%
Trykk 1019 hPa
Sikt 10 km eller mer
ingen skyer under 1500 m og ingen bygeskyer

METAR: ENOL 230650Z 12013KT CAVOK 10/04 Q1019 NOSIG

Tid: 09:13 (07:13 UTC)

Varsel

Varsel gyldig fra 23. klokken 06 UTC til 24. klokken 06 UTC
Vind 15 kt fra Øst-sørøst
Sikt 10 km eller mer
ingen skyer under 1500 m og ingen bygeskyer
Midlertidig
fra 23. klokken 12 UTC til 23. klokken 21 UTC
Vind 5 kt fra skiftende retning

TAF: ENOL 2306/2406 12015KT CAVOK TEMPO 2312/2321 VRB05KT

Værobservasjoner og værvarsel for over 4000 flyplasser (METAR- og TAF-rapporter).

Tilgjengelige stasjoner er representert av de røde og gule prikkene på kartet.

Hold musepekeren over prikken for å se navnet på stasjonen.

Klikk så for å se værobservasjoner og -varsler.

For å forandre kartet kan du klikke på den grønne knappen med svart kryss for å zoome inn, på den grønne knappen med strek for å zoome ut, eller på de grønne pilene for å se tilstøtende kart.


METAR-TAF: